sensor_id;sensor_type;location;lat;lon;timestamp;P1;durP1;ratioP1;P2;durP2;ratioP2
45208;SDS011;30951;43.994;26.260;2023-01-29T00:01:09;16.80;;;8.93;;
45208;SDS011;30951;43.994;26.260;2023-01-29T00:03:35;15.38;;;9.30;;
45208;SDS011;30951;43.994;26.260;2023-01-29T00:06:04;15.98;;;9.18;;
45208;SDS011;30951;43.994;26.260;2023-01-29T00:08:34;13.32;;;8.73;;
45208;SDS011;30951;43.994;26.260;2023-01-29T00:11:00;14.40;;;9.07;;
45208;SDS011;30951;43.994;26.260;2023-01-29T00:13:26;15.70;;;8.95;;
45208;SDS011;30951;43.994;26.260;2023-01-29T00:15:53;17.60;;;9.88;;
45208;SDS011;30951;43.994;26.260;2023-01-29T00:18:20;14.10;;;8.43;;
45208;SDS011;30951;43.994;26.260;2023-01-29T00:20:45;15.48;;;9.10;;
45208;SDS011;30951;43.994;26.260;2023-01-29T00:23:11;16.70;;;9.20;;
45208;SDS011;30951;43.994;26.260;2023-01-29T00:25:36;16.75;;;9.85;;
45208;SDS011;30951;43.994;26.260;2023-01-29T00:28:02;16.50;;;9.23;;
45208;SDS011;30951;43.994;26.260;2023-01-29T00:30:27;16.20;;;9.00;;
45208;SDS011;30951;43.994;26.260;2023-01-29T00:32:53;15.48;;;8.90;;
45208;SDS011;30951;43.994;26.260;2023-01-29T00:35:18;15.07;;;9.35;;
45208;SDS011;30951;43.994;26.260;2023-01-29T00:37:44;14.00;;;8.80;;
45208;SDS011;30951;43.994;26.260;2023-01-29T00:40:09;15.38;;;8.85;;
45208;SDS011;30951;43.994;26.260;2023-01-29T00:42:35;19.05;;;10.02;;
45208;SDS011;30951;43.994;26.260;2023-01-29T00:45:19;18.90;;;9.50;;
45208;SDS011;30951;43.994;26.260;2023-01-29T00:47:44;19.40;;;9.80;;
45208;SDS011;30951;43.994;26.260;2023-01-29T00:50:10;19.60;;;10.70;;
45208;SDS011;30951;43.994;26.260;2023-01-29T00:52:37;21.33;;;10.50;;
45208;SDS011;30951;43.994;26.260;2023-01-29T00:55:05;20.17;;;9.70;;
45208;SDS011;30951;43.994;26.260;2023-01-29T00:57:32;17.73;;;9.63;;
45208;SDS011;30951;43.994;26.260;2023-01-29T00:59:59;17.15;;;10.00;;
45208;SDS011;30951;43.994;26.260;2023-01-29T01:02:25;17.65;;;9.02;;
45208;SDS011;30951;43.994;26.260;2023-01-29T01:05:11;20.75;;;9.38;;
45208;SDS011;30951;43.994;26.260;2023-01-29T01:07:42;18.58;;;9.57;;
45208;SDS011;30951;43.994;26.260;2023-01-29T01:10:13;18.35;;;9.43;;
45208;SDS011;30951;43.994;26.260;2023-01-29T01:12:46;19.60;;;8.48;;
45208;SDS011;30951;43.994;26.260;2023-01-29T01:15:14;19.08;;;10.18;;
45208;SDS011;30951;43.994;26.260;2023-01-29T01:17:40;20.70;;;9.80;;
45208;SDS011;30951;43.994;26.260;2023-01-29T01:20:06;18.52;;;10.02;;
45208;SDS011;30951;43.994;26.260;2023-01-29T01:22:32;20.90;;;9.75;;
45208;SDS011;30951;43.994;26.260;2023-01-29T01:24:58;17.35;;;8.43;;
45208;SDS011;30951;43.994;26.260;2023-01-29T01:27:23;17.08;;;8.77;;
45208;SDS011;30951;43.994;26.260;2023-01-29T01:29:49;18.92;;;8.55;;
45208;SDS011;30951;43.994;26.260;2023-01-29T01:32:15;16.45;;;8.13;;
45208;SDS011;30951;43.994;26.260;2023-01-29T01:34:41;19.35;;;8.60;;
45208;SDS011;30951;43.994;26.260;2023-01-29T01:37:06;16.58;;;7.95;;
45208;SDS011;30951;43.994;26.260;2023-01-29T01:39:32;18.60;;;8.98;;
45208;SDS011;30951;43.994;26.260;2023-01-29T01:41:57;21.38;;;8.90;;
45208;SDS011;30951;43.994;26.260;2023-01-29T01:47:41;20.13;;;9.23;;
45208;SDS011;30951;43.994;26.260;2023-01-29T01:50:10;24.67;;;10.40;;
45208;SDS011;30951;43.994;26.260;2023-01-29T01:52:42;23.38;;;10.07;;
45208;SDS011;30951;43.994;26.260;2023-01-29T01:55:11;22.05;;;9.73;;
45208;SDS011;30951;43.994;26.260;2023-01-29T01:57:38;25.75;;;9.00;;
45208;SDS011;30951;43.994;26.260;2023-01-29T02:00:06;31.20;;;9.75;;
45208;SDS011;30951;43.994;26.260;2023-01-29T02:02:40;24.50;;;9.38;;
45208;SDS011;30951;43.994;26.260;2023-01-29T02:05:25;25.10;;;9.85;;
45208;SDS011;30951;43.994;26.260;2023-01-29T02:08:10;25.10;;;10.15;;
45208;SDS011;30951;43.994;26.260;2023-01-29T02:10:54;32.45;;;10.10;;
45208;SDS011;30951;43.994;26.260;2023-01-29T02:13:20;37.20;;;11.27;;
45208;SDS011;30951;43.994;26.260;2023-01-29T02:15:46;27.90;;;10.13;;
45208;SDS011;30951;43.994;26.260;2023-01-29T02:18:16;27.10;;;10.65;;
45208;SDS011;30951;43.994;26.260;2023-01-29T02:20:47;25.75;;;11.23;;
45208;SDS011;30951;43.994;26.260;2023-01-29T02:34:40;27.25;;;10.35;;
45208;SDS011;30951;43.994;26.260;2023-01-29T02:37:33;32.17;;;9.70;;
45208;SDS011;30951;43.994;26.260;2023-01-29T02:40:23;26.92;;;9.50;;
45208;SDS011;30951;43.994;26.260;2023-01-29T02:43:07;89.75;;;13.43;;
45208;SDS011;30951;43.994;26.260;2023-01-29T02:45:52;66.80;;;12.25;;
45208;SDS011;30951;43.994;26.260;2023-01-29T02:48:22;81.15;;;12.40;;
45208;SDS011;30951;43.994;26.260;2023-01-29T02:55:56;40.38;;;9.93;;
45208;SDS011;30951;43.994;26.260;2023-01-29T03:01:34;70.78;;;12.13;;
45208;SDS011;30951;43.994;26.260;2023-01-29T03:04:09;63.33;;;11.45;;
45208;SDS011;30951;43.994;26.260;2023-01-29T03:06:40;58.08;;;11.40;;
45208;SDS011;30951;43.994;26.260;2023-01-29T03:09:11;60.00;;;12.10;;
45208;SDS011;30951;43.994;26.260;2023-01-29T03:11:45;34.60;;;10.52;;
45208;SDS011;30951;43.994;26.260;2023-01-29T03:14:27;49.65;;;11.40;;
45208;SDS011;30951;43.994;26.260;2023-01-29T03:17:17;41.63;;;10.30;;
45208;SDS011;30951;43.994;26.260;2023-01-29T03:19:45;43.40;;;10.52;;
45208;SDS011;30951;43.994;26.260;2023-01-29T03:22:11;37.53;;;11.20;;
45208;SDS011;30951;43.994;26.260;2023-01-29T03:24:44;44.90;;;10.73;;
45208;SDS011;30951;43.994;26.260;2023-01-29T03:27:39;69.43;;;12.07;;
45208;SDS011;30951;43.994;26.260;2023-01-29T03:30:24;44.97;;;10.90;;
45208;SDS011;30951;43.994;26.260;2023-01-29T03:33:11;30.05;;;9.65;;
45208;SDS011;30951;43.994;26.260;2023-01-29T03:35:39;36.92;;;10.63;;
45208;SDS011;30951;43.994;26.260;2023-01-29T03:38:09;34.17;;;10.50;;
45208;SDS011;30951;43.994;26.260;2023-01-29T03:40:46;33.20;;;9.15;;
45208;SDS011;30951;43.994;26.260;2023-01-29T03:46:20;35.28;;;11.38;;
45208;SDS011;30951;43.994;26.260;2023-01-29T03:49:17;32.17;;;10.95;;
45208;SDS011;30951;43.994;26.260;2023-01-29T03:52:02;29.35;;;11.10;;
45208;SDS011;30951;43.994;26.260;2023-01-29T03:57:19;29.25;;;10.38;;
45208;SDS011;30951;43.994;26.260;2023-01-29T04:00:07;34.78;;;11.02;;
45208;SDS011;30951;43.994;26.260;2023-01-29T04:02:54;37.20;;;11.95;;
45208;SDS011;30951;43.994;26.260;2023-01-29T04:05:26;34.95;;;11.43;;
45208;SDS011;30951;43.994;26.260;2023-01-29T04:07:56;44.70;;;12.02;;
45208;SDS011;30951;43.994;26.260;2023-01-29T04:10:28;35.97;;;12.02;;
45208;SDS011;30951;43.994;26.260;2023-01-29T04:12:57;34.25;;;11.00;;
45208;SDS011;30951;43.994;26.260;2023-01-29T04:15:26;37.42;;;10.65;;
45208;SDS011;30951;43.994;26.260;2023-01-29T04:17:53;31.00;;;10.40;;
45208;SDS011;30951;43.994;26.260;2023-01-29T04:20:19;42.55;;;12.25;;
45208;SDS011;30951;43.994;26.260;2023-01-29T04:22:47;40.92;;;11.80;;
45208;SDS011;30951;43.994;26.260;2023-01-29T04:25:15;46.10;;;11.98;;
45208;SDS011;30951;43.994;26.260;2023-01-29T04:30:28;43.95;;;12.90;;
45208;SDS011;30951;43.994;26.260;2023-01-29T04:38:19;57.08;;;13.32;;
45208;SDS011;30951;43.994;26.260;2023-01-29T04:40:57;80.70;;;15.18;;
45208;SDS011;30951;43.994;26.260;2023-01-29T04:43:31;62.30;;;15.25;;
45208;SDS011;30951;43.994;26.260;2023-01-29T04:49:16;113.70;;;16.25;;
45208;SDS011;30951;43.994;26.260;2023-01-29T04:52:11;97.55;;;15.60;;
45208;SDS011;30951;43.994;26.260;2023-01-29T04:55:00;56.55;;;13.05;;
45208;SDS011;30951;43.994;26.260;2023-01-29T05:00:30;67.78;;;14.05;;
45208;SDS011;30951;43.994;26.260;2023-01-29T05:02:59;47.15;;;13.10;;
45208;SDS011;30951;43.994;26.260;2023-01-29T05:05:25;38.65;;;12.55;;
45208;SDS011;30951;43.994;26.260;2023-01-29T05:07:52;42.22;;;12.77;;
45208;SDS011;30951;43.994;26.260;2023-01-29T05:10:19;42.38;;;11.45;;
45208;SDS011;30951;43.994;26.260;2023-01-29T05:12:46;39.78;;;13.43;;
45208;SDS011;30951;43.994;26.260;2023-01-29T05:15:19;38.40;;;11.55;;
45208;SDS011;30951;43.994;26.260;2023-01-29T05:17:51;33.30;;;11.43;;
45208;SDS011;30951;43.994;26.260;2023-01-29T05:20:18;41.35;;;12.02;;
45208;SDS011;30951;43.994;26.260;2023-01-29T05:22:44;38.92;;;11.50;;
45208;SDS011;30951;43.994;26.260;2023-01-29T05:25:18;36.22;;;11.02;;
45208;SDS011;30951;43.994;26.260;2023-01-29T05:27:45;48.05;;;12.55;;
45208;SDS011;30951;43.994;26.260;2023-01-29T05:30:36;35.65;;;11.73;;
45208;SDS011;30951;43.994;26.260;2023-01-29T05:33:02;26.42;;;11.73;;
45208;SDS011;30951;43.994;26.260;2023-01-29T05:35:29;34.20;;;11.80;;
45208;SDS011;30951;43.994;26.260;2023-01-29T05:37:55;29.58;;;11.02;;
45208;SDS011;30951;43.994;26.260;2023-01-29T05:40:21;28.27;;;11.60;;
45208;SDS011;30951;43.994;26.260;2023-01-29T05:42:48;29.23;;;10.75;;
45208;SDS011;30951;43.994;26.260;2023-01-29T05:45:15;28.05;;;11.48;;
45208;SDS011;30951;43.994;26.260;2023-01-29T05:47:42;24.90;;;10.90;;
45208;SDS011;30951;43.994;26.260;2023-01-29T05:50:08;27.40;;;12.48;;
45208;SDS011;30951;43.994;26.260;2023-01-29T05:52:34;26.95;;;11.68;;
45208;SDS011;30951;43.994;26.260;2023-01-29T05:55:00;25.58;;;10.98;;
45208;SDS011;30951;43.994;26.260;2023-01-29T05:57:25;26.85;;;10.52;;
45208;SDS011;30951;43.994;26.260;2023-01-29T05:59:51;35.60;;;14.63;;
45208;SDS011;30951;43.994;26.260;2023-01-29T06:02:16;30.08;;;13.00;;
45208;SDS011;30951;43.994;26.260;2023-01-29T06:04:42;28.00;;;11.65;;
45208;SDS011;30951;43.994;26.260;2023-01-29T06:07:07;30.50;;;11.27;;
45208;SDS011;30951;43.994;26.260;2023-01-29T06:09:32;30.73;;;11.73;;
45208;SDS011;30951;43.994;26.260;2023-01-29T06:11:58;26.83;;;11.35;;
45208;SDS011;30951;43.994;26.260;2023-01-29T06:14:24;26.17;;;12.98;;
45208;SDS011;30951;43.994;26.260;2023-01-29T06:16:49;31.10;;;11.10;;
45208;SDS011;30951;43.994;26.260;2023-01-29T06:19:15;24.65;;;11.43;;
45208;SDS011;30951;43.994;26.260;2023-01-29T06:21:42;28.92;;;10.80;;
45208;SDS011;30951;43.994;26.260;2023-01-29T06:24:08;44.35;;;12.45;;
45208;SDS011;30951;43.994;26.260;2023-01-29T06:26:33;39.97;;;10.85;;
45208;SDS011;30951;43.994;26.260;2023-01-29T06:28:59;92.80;;;13.23;;
45208;SDS011;30951;43.994;26.260;2023-01-29T06:31:24;89.82;;;13.30;;
45208;SDS011;30951;43.994;26.260;2023-01-29T06:33:50;52.50;;;12.07;;
45208;SDS011;30951;43.994;26.260;2023-01-29T06:36:15;98.63;;;14.00;;
45208;SDS011;30951;43.994;26.260;2023-01-29T06:38:41;34.38;;;11.07;;
45208;SDS011;30951;43.994;26.260;2023-01-29T06:41:07;55.63;;;11.77;;
45208;SDS011;30951;43.994;26.260;2023-01-29T06:43:43;40.47;;;10.25;;
45208;SDS011;30951;43.994;26.260;2023-01-29T06:46:09;30.10;;;11.07;;
45208;SDS011;30951;43.994;26.260;2023-01-29T06:48:35;27.73;;;10.77;;
45208;SDS011;30951;43.994;26.260;2023-01-29T06:51:04;42.13;;;13.93;;
45208;SDS011;30951;43.994;26.260;2023-01-29T06:53:32;30.85;;;11.75;;
45208;SDS011;30951;43.994;26.260;2023-01-29T06:55:58;24.77;;;10.55;;
45208;SDS011;30951;43.994;26.260;2023-01-29T06:58:24;19.73;;;10.07;;
45208;SDS011;30951;43.994;26.260;2023-01-29T07:00:49;19.52;;;10.60;;
45208;SDS011;30951;43.994;26.260;2023-01-29T07:03:15;26.00;;;12.07;;
45208;SDS011;30951;43.994;26.260;2023-01-29T07:05:40;21.35;;;11.07;;
45208;SDS011;30951;43.994;26.260;2023-01-29T07:08:06;22.42;;;11.80;;
45208;SDS011;30951;43.994;26.260;2023-01-29T07:10:33;22.50;;;12.15;;
45208;SDS011;30951;43.994;26.260;2023-01-29T07:12:59;22.02;;;11.95;;
45208;SDS011;30951;43.994;26.260;2023-01-29T07:15:25;21.50;;;12.55;;
45208;SDS011;30951;43.994;26.260;2023-01-29T07:17:54;22.33;;;12.43;;
45208;SDS011;30951;43.994;26.260;2023-01-29T07:20:24;28.88;;;15.60;;
45208;SDS011;30951;43.994;26.260;2023-01-29T07:22:50;24.35;;;13.32;;
45208;SDS011;30951;43.994;26.260;2023-01-29T07:25:16;21.80;;;13.13;;
45208;SDS011;30951;43.994;26.260;2023-01-29T07:27:41;21.55;;;12.55;;
45208;SDS011;30951;43.994;26.260;2023-01-29T07:30:07;25.63;;;14.43;;
45208;SDS011;30951;43.994;26.260;2023-01-29T07:32:33;27.02;;;17.38;;
45208;SDS011;30951;43.994;26.260;2023-01-29T07:34:59;29.67;;;16.10;;
45208;SDS011;30951;43.994;26.260;2023-01-29T07:37:24;25.30;;;15.13;;
45208;SDS011;30951;43.994;26.260;2023-01-29T07:39:50;26.55;;;15.98;;
45208;SDS011;30951;43.994;26.260;2023-01-29T07:42:15;24.70;;;13.95;;
45208;SDS011;30951;43.994;26.260;2023-01-29T07:44:41;21.10;;;12.70;;
45208;SDS011;30951;43.994;26.260;2023-01-29T07:47:06;19.10;;;12.13;;
45208;SDS011;30951;43.994;26.260;2023-01-29T07:49:32;22.40;;;13.63;;
45208;SDS011;30951;43.994;26.260;2023-01-29T07:51:57;23.30;;;12.95;;
45208;SDS011;30951;43.994;26.260;2023-01-29T07:54:22;16.73;;;11.23;;
45208;SDS011;30951;43.994;26.260;2023-01-29T07:56:48;21.55;;;12.05;;
45208;SDS011;30951;43.994;26.260;2023-01-29T07:59:13;17.30;;;11.20;;
45208;SDS011;30951;43.994;26.260;2023-01-29T08:01:39;18.45;;;11.23;;
45208;SDS011;30951;43.994;26.260;2023-01-29T08:04:04;19.60;;;11.52;;
45208;SDS011;30951;43.994;26.260;2023-01-29T08:06:30;18.55;;;10.00;;
45208;SDS011;30951;43.994;26.260;2023-01-29T08:08:56;17.92;;;10.48;;
45208;SDS011;30951;43.994;26.260;2023-01-29T08:11:21;16.60;;;10.68;;
45208;SDS011;30951;43.994;26.260;2023-01-29T08:13:47;16.08;;;9.32;;
45208;SDS011;30951;43.994;26.260;2023-01-29T08:16:12;16.27;;;9.32;;
45208;SDS011;30951;43.994;26.260;2023-01-29T08:18:38;13.63;;;9.02;;
45208;SDS011;30951;43.994;26.260;2023-01-29T08:21:08;13.05;;;8.73;;
45208;SDS011;30951;43.994;26.260;2023-01-29T08:23:33;15.90;;;9.80;;
45208;SDS011;30951;43.994;26.260;2023-01-29T08:26:00;12.85;;;8.05;;
45208;SDS011;30951;43.994;26.260;2023-01-29T08:28:27;11.82;;;8.02;;
45208;SDS011;30951;43.994;26.260;2023-01-29T08:30:52;13.35;;;9.07;;
45208;SDS011;30951;43.994;26.260;2023-01-29T08:33:18;10.73;;;7.28;;
45208;SDS011;30951;43.994;26.260;2023-01-29T08:35:47;13.07;;;7.93;;
45208;SDS011;30951;43.994;26.260;2023-01-29T08:38:13;13.25;;;8.65;;
45208;SDS011;30951;43.994;26.260;2023-01-29T08:40:38;13.38;;;8.55;;
45208;SDS011;30951;43.994;26.260;2023-01-29T08:43:05;18.05;;;10.13;;
45208;SDS011;30951;43.994;26.260;2023-01-29T08:45:36;15.82;;;10.13;;
45208;SDS011;30951;43.994;26.260;2023-01-29T08:48:02;19.25;;;10.80;;
45208;SDS011;30951;43.994;26.260;2023-01-29T08:50:28;17.05;;;9.57;;
45208;SDS011;30951;43.994;26.260;2023-01-29T08:52:59;19.73;;;11.20;;
45208;SDS011;30951;43.994;26.260;2023-01-29T08:55:26;18.63;;;11.43;;
45208;SDS011;30951;43.994;26.260;2023-01-29T08:57:52;19.17;;;11.50;;
45208;SDS011;30951;43.994;26.260;2023-01-29T09:00:18;23.58;;;12.15;;
45208;SDS011;30951;43.994;26.260;2023-01-29T09:02:43;20.63;;;11.32;;
45208;SDS011;30951;43.994;26.260;2023-01-29T09:05:09;19.95;;;12.25;;
45208;SDS011;30951;43.994;26.260;2023-01-29T09:07:34;21.83;;;13.38;;
45208;SDS011;30951;43.994;26.260;2023-01-29T09:10:00;22.30;;;13.88;;
45208;SDS011;30951;43.994;26.260;2023-01-29T09:12:26;24.33;;;13.85;;
45208;SDS011;30951;43.994;26.260;2023-01-29T09:14:51;24.10;;;14.73;;
45208;SDS011;30951;43.994;26.260;2023-01-29T09:17:17;21.27;;;12.38;;
45208;SDS011;30951;43.994;26.260;2023-01-29T09:19:42;21.33;;;12.18;;
45208;SDS011;30951;43.994;26.260;2023-01-29T09:22:08;19.20;;;11.75;;
45208;SDS011;30951;43.994;26.260;2023-01-29T09:24:33;17.20;;;10.38;;
45208;SDS011;30951;43.994;26.260;2023-01-29T09:26:59;16.60;;;10.30;;
45208;SDS011;30951;43.994;26.260;2023-01-29T09:29:25;13.35;;;9.85;;
45208;SDS011;30951;43.994;26.260;2023-01-29T09:31:50;14.43;;;9.15;;
45208;SDS011;30951;43.994;26.260;2023-01-29T09:34:16;16.65;;;10.50;;
45208;SDS011;30951;43.994;26.260;2023-01-29T09:36:41;19.30;;;11.13;;
45208;SDS011;30951;43.994;26.260;2023-01-29T09:39:07;14.90;;;10.07;;
45208;SDS011;30951;43.994;26.260;2023-01-29T09:44:26;19.13;;;11.70;;
45208;SDS011;30951;43.994;26.260;2023-01-29T09:46:55;17.17;;;10.75;;
45208;SDS011;30951;43.994;26.260;2023-01-29T09:49:25;18.88;;;11.40;;
45208;SDS011;30951;43.994;26.260;2023-01-29T09:52:01;15.77;;;10.50;;
45208;SDS011;30951;43.994;26.260;2023-01-29T09:54:31;16.73;;;10.75;;
45208;SDS011;30951;43.994;26.260;2023-01-29T09:56:59;15.38;;;9.63;;
45208;SDS011;30951;43.994;26.260;2023-01-29T09:59:26;15.55;;;10.48;;
45208;SDS011;30951;43.994;26.260;2023-01-29T10:15:45;14.25;;;8.40;;
45208;SDS011;30951;43.994;26.260;2023-01-29T10:21:17;15.10;;;9.50;;
45208;SDS011;30951;43.994;26.260;2023-01-29T10:26:32;11.98;;;8.23;;
45208;SDS011;30951;43.994;26.260;2023-01-29T10:29:00;12.95;;;8.85;;
45208;SDS011;30951;43.994;26.260;2023-01-29T10:33:59;14.02;;;10.32;;
45208;SDS011;30951;43.994;26.260;2023-01-29T10:36:31;12.63;;;9.20;;
45208;SDS011;30951;43.994;26.260;2023-01-29T10:38:58;15.90;;;9.55;;
45208;SDS011;30951;43.994;26.260;2023-01-29T10:41:41;12.25;;;8.77;;
45208;SDS011;30951;43.994;26.260;2023-01-29T10:49:54;13.02;;;8.05;;
45208;SDS011;30951;43.994;26.260;2023-01-29T10:55:02;12.80;;;7.85;;
45208;SDS011;30951;43.994;26.260;2023-01-29T11:00:39;14.30;;;8.63;;
45208;SDS011;30951;43.994;26.260;2023-01-29T11:03:22;12.23;;;8.07;;
45208;SDS011;30951;43.994;26.260;2023-01-29T11:06:00;11.00;;;7.35;;
45208;SDS011;30951;43.994;26.260;2023-01-29T11:11:17;16.48;;;8.45;;
45208;SDS011;30951;43.994;26.260;2023-01-29T11:13:54;13.35;;;7.93;;
45208;SDS011;30951;43.994;26.260;2023-01-29T11:16:31;13.05;;;7.68;;
45208;SDS011;30951;43.994;26.260;2023-01-29T11:19:07;12.02;;;8.13;;
45208;SDS011;30951;43.994;26.260;2023-01-29T11:21:49;12.10;;;7.20;;
45208;SDS011;30951;43.994;26.260;2023-01-29T11:24:21;10.73;;;7.43;;
45208;SDS011;30951;43.994;26.260;2023-01-29T11:26:47;10.25;;;7.05;;
45208;SDS011;30951;43.994;26.260;2023-01-29T11:29:31;12.35;;;6.88;;
45208;SDS011;30951;43.994;26.260;2023-01-29T11:31:59;12.98;;;7.05;;
45208;SDS011;30951;43.994;26.260;2023-01-29T11:34:28;11.45;;;7.18;;
45208;SDS011;30951;43.994;26.260;2023-01-29T11:39:23;14.15;;;8.13;;
45208;SDS011;30951;43.994;26.260;2023-01-29T11:42:02;11.70;;;7.35;;
45208;SDS011;30951;43.994;26.260;2023-01-29T11:49:52;10.90;;;7.45;;
45208;SDS011;30951;43.994;26.260;2023-01-29T11:52:46;12.02;;;7.22;;
45208;SDS011;30951;43.994;26.260;2023-01-29T11:57:41;13.37;;;7.83;;
45208;SDS011;30951;43.994;26.260;2023-01-29T12:05:22;12.88;;;7.60;;
45208;SDS011;30951;43.994;26.260;2023-01-29T12:07:49;11.32;;;7.05;;
45208;SDS011;30951;43.994;26.260;2023-01-29T12:10:30;12.48;;;8.52;;
45208;SDS011;30951;43.994;26.260;2023-01-29T12:15:40;14.90;;;9.23;;
45208;SDS011;30951;43.994;26.260;2023-01-29T12:20:45;18.27;;;10.43;;
45208;SDS011;30951;43.994;26.260;2023-01-29T12:26:06;24.67;;;12.50;;
45208;SDS011;30951;43.994;26.260;2023-01-29T12:34:22;27.35;;;15.63;;
45208;SDS011;30951;43.994;26.260;2023-01-29T12:36:55;27.42;;;14.68;;
45208;SDS011;30951;43.994;26.260;2023-01-29T12:39:25;24.50;;;14.77;;
45208;SDS011;30951;43.994;26.260;2023-01-29T12:41:56;23.45;;;14.30;;
45208;SDS011;30951;43.994;26.260;2023-01-29T12:44:46;25.70;;;15.60;;
45208;SDS011;30951;43.994;26.260;2023-01-29T12:47:22;24.20;;;15.23;;
45208;SDS011;30951;43.994;26.260;2023-01-29T12:49:51;25.77;;;14.48;;
45208;SDS011;30951;43.994;26.260;2023-01-29T12:58:02;19.92;;;12.13;;
45208;SDS011;30951;43.994;26.260;2023-01-29T13:00:36;24.20;;;13.60;;
45208;SDS011;30951;43.994;26.260;2023-01-29T13:06:05;19.58;;;12.38;;
45208;SDS011;30951;43.994;26.260;2023-01-29T13:08:50;17.75;;;11.40;;
45208;SDS011;30951;43.994;26.260;2023-01-29T13:11:29;15.32;;;9.75;;
45208;SDS011;30951;43.994;26.260;2023-01-29T13:14:23;16.90;;;9.65;;
45208;SDS011;30951;43.994;26.260;2023-01-29T13:19:57;17.55;;;10.95;;
45208;SDS011;30951;43.994;26.260;2023-01-29T13:22:36;14.55;;;8.90;;
45208;SDS011;30951;43.994;26.260;2023-01-29T13:25:03;17.13;;;9.35;;
45208;SDS011;30951;43.994;26.260;2023-01-29T13:27:29;15.77;;;11.15;;
45208;SDS011;30951;43.994;26.260;2023-01-29T13:29:56;15.95;;;10.20;;
45208;SDS011;30951;43.994;26.260;2023-01-29T13:32:26;14.35;;;9.93;;
45208;SDS011;30951;43.994;26.260;2023-01-29T13:34:56;20.07;;;10.17;;
45208;SDS011;30951;43.994;26.260;2023-01-29T13:37:26;14.05;;;9.13;;
45208;SDS011;30951;43.994;26.260;2023-01-29T13:39:54;15.38;;;9.25;;
45208;SDS011;30951;43.994;26.260;2023-01-29T13:48:07;13.40;;;9.45;;
45208;SDS011;30951;43.994;26.260;2023-01-29T13:50:36;15.80;;;9.05;;
45208;SDS011;30951;43.994;26.260;2023-01-29T13:53:04;15.05;;;10.15;;
45208;SDS011;30951;43.994;26.260;2023-01-29T13:58:00;12.23;;;9.15;;
45208;SDS011;30951;43.994;26.260;2023-01-29T14:05:55;17.45;;;11.23;;
45208;SDS011;30951;43.994;26.260;2023-01-29T14:13:37;15.02;;;10.68;;
45208;SDS011;30951;43.994;26.260;2023-01-29T14:18:35;15.65;;;10.20;;
45208;SDS011;30951;43.994;26.260;2023-01-29T14:21:02;13.77;;;8.85;;
45208;SDS011;30951;43.994;26.260;2023-01-29T14:23:40;14.45;;;8.95;;
45208;SDS011;30951;43.994;26.260;2023-01-29T14:28:58;12.97;;;7.03;;
45208;SDS011;30951;43.994;26.260;2023-01-29T14:31:52;11.73;;;7.05;;
45208;SDS011;30951;43.994;26.260;2023-01-29T14:34:25;11.98;;;7.47;;
45208;SDS011;30951;43.994;26.260;2023-01-29T14:36:56;11.18;;;8.23;;
45208;SDS011;30951;43.994;26.260;2023-01-29T14:39:35;9.55;;;6.60;;
45208;SDS011;30951;43.994;26.260;2023-01-29T14:42:03;11.23;;;7.07;;
45208;SDS011;30951;43.994;26.260;2023-01-29T14:47:18;10.82;;;6.50;;
45208;SDS011;30951;43.994;26.260;2023-01-29T14:52:19;9.63;;;6.35;;
45208;SDS011;30951;43.994;26.260;2023-01-29T14:54:47;9.63;;;6.45;;
45208;SDS011;30951;43.994;26.260;2023-01-29T14:57:15;13.48;;;6.38;;
45208;SDS011;30951;43.994;26.260;2023-01-29T14:59:55;10.65;;;6.35;;
45208;SDS011;30951;43.994;26.260;2023-01-29T15:02:42;8.32;;;5.72;;
45208;SDS011;30951;43.994;26.260;2023-01-29T15:05:28;11.85;;;6.53;;
45208;SDS011;30951;43.994;26.260;2023-01-29T15:10:56;11.40;;;6.30;;
45208;SDS011;30951;43.994;26.260;2023-01-29T15:16:20;13.07;;;6.43;;
45208;SDS011;30951;43.994;26.260;2023-01-29T15:18:49;11.85;;;6.20;;
45208;SDS011;30951;43.994;26.260;2023-01-29T15:21:17;11.90;;;6.65;;
45208;SDS011;30951;43.994;26.260;2023-01-29T15:23:44;10.32;;;6.78;;
45208;SDS011;30951;43.994;26.260;2023-01-29T15:26:22;14.35;;;7.85;;
45208;SDS011;30951;43.994;26.260;2023-01-29T15:28:55;12.23;;;8.07;;
45208;SDS011;30951;43.994;26.260;2023-01-29T15:31:22;12.65;;;7.82;;
45208;SDS011;30951;43.994;26.260;2023-01-29T15:33:50;14.25;;;7.70;;
45208;SDS011;30951;43.994;26.260;2023-01-29T15:36:21;12.02;;;7.30;;
45208;SDS011;30951;43.994;26.260;2023-01-29T15:39:26;13.32;;;8.10;;
45208;SDS011;30951;43.994;26.260;2023-01-29T15:41:47;14.10;;;7.72;;
45208;SDS011;30951;43.994;26.260;2023-01-29T15:44:19;14.88;;;9.10;;
45208;SDS011;30951;43.994;26.260;2023-01-29T15:46:47;15.52;;;8.23;;
45208;SDS011;30951;43.994;26.260;2023-01-29T15:49:28;12.48;;;7.95;;
45208;SDS011;30951;43.994;26.260;2023-01-29T15:51:59;12.73;;;7.40;;
45208;SDS011;30951;43.994;26.260;2023-01-29T15:54:31;17.33;;;9.23;;
45208;SDS011;30951;43.994;26.260;2023-01-29T15:56:58;10.83;;;7.07;;
45208;SDS011;30951;43.994;26.260;2023-01-29T15:59:25;11.85;;;7.45;;
45208;SDS011;30951;43.994;26.260;2023-01-29T16:01:52;15.00;;;8.25;;
45208;SDS011;30951;43.994;26.260;2023-01-29T16:04:19;16.27;;;7.80;;
45208;SDS011;30951;43.994;26.260;2023-01-29T16:06:48;14.77;;;8.40;;
45208;SDS011;30951;43.994;26.260;2023-01-29T16:09:16;17.98;;;8.07;;
45208;SDS011;30951;43.994;26.260;2023-01-29T16:11:44;15.13;;;8.52;;
45208;SDS011;30951;43.994;26.260;2023-01-29T16:14:14;16.85;;;7.65;;
45208;SDS011;30951;43.994;26.260;2023-01-29T16:16:43;14.10;;;7.57;;
45208;SDS011;30951;43.994;26.260;2023-01-29T16:19:28;14.90;;;7.75;;
45208;SDS011;30951;43.994;26.260;2023-01-29T16:22:00;11.18;;;7.03;;
45208;SDS011;30951;43.994;26.260;2023-01-29T16:24:28;15.07;;;7.10;;
45208;SDS011;30951;43.994;26.260;2023-01-29T16:26:56;14.68;;;6.95;;
45208;SDS011;30951;43.994;26.260;2023-01-29T16:29:28;11.88;;;7.30;;
45208;SDS011;30951;43.994;26.260;2023-01-29T16:31:55;17.27;;;9.30;;
45208;SDS011;30951;43.994;26.260;2023-01-29T16:34:27;12.05;;;7.05;;
45208;SDS011;30951;43.994;26.260;2023-01-29T16:36:56;11.15;;;6.75;;
45208;SDS011;30951;43.994;26.260;2023-01-29T16:39:22;22.13;;;13.88;;
45208;SDS011;30951;43.994;26.260;2023-01-29T16:44:37;48.05;;;24.83;;
45208;SDS011;30951;43.994;26.260;2023-01-29T16:47:10;26.95;;;15.05;;
45208;SDS011;30951;43.994;26.260;2023-01-29T16:50:01;14.57;;;8.13;;
45208;SDS011;30951;43.994;26.260;2023-01-29T16:52:59;15.40;;;8.63;;
45208;SDS011;30951;43.994;26.260;2023-01-29T16:55:36;15.00;;;8.60;;
45208;SDS011;30951;43.994;26.260;2023-01-29T16:58:08;18.38;;;9.63;;
45208;SDS011;30951;43.994;26.260;2023-01-29T17:00:52;18.02;;;9.77;;
45208;SDS011;30951;43.994;26.260;2023-01-29T17:03:19;21.75;;;10.50;;
45208;SDS011;30951;43.994;26.260;2023-01-29T17:05:45;23.42;;;10.65;;
45208;SDS011;30951;43.994;26.260;2023-01-29T17:08:16;22.92;;;11.05;;
45208;SDS011;30951;43.994;26.260;2023-01-29T17:10:54;20.55;;;10.90;;
45208;SDS011;30951;43.994;26.260;2023-01-29T17:13:26;24.65;;;11.27;;